Terminal Aerodrome Forecast
Issued by NWS

Home | Current Version | Previous Version | Text Only | Print | Product List | Glossary On
Versions: 1 2 3 4 5 6 7 8 9 10 11 12 13 14 15 16 17 18 19 20 21
698
FTAK31 PAJN 090817 AAC
TAFAJN
TAF AMD
PAJN 090817Z 0908/1006 13010KT 6SM -RA BR FEW010 SCT025 OVC035
      WS020/13025KT
      TEMPO 0908/0912 13012G20KT
     FM091200 15010G15KT 6SM -RA BR SCT010 BKN025 OVC040
     FM091500 15006KT P6SM SCT025 BKN040 OVC060
     FM092000 VRB04KT P6SM SCT030 BKN060 BKN100
     FM100200 08009KT P6SM BKN060 OVC100=

USA.gov is the U.S. government's official web portal to all federal, state and local government web resources and services.